Time;durP1;ratioP1;P1;durP2;ratioP2;P2;SDS_P1;SDS_P2;PMS_P1;PMS_P2;Temp;Humidity;BMP_temperature;BMP_pressure;BME280_temperature;BME280_humidity;BME280_pressure;Samples;Min_cycle;Max_cycle;Signal;HPM_P1;HPM_P2
2021/07/03 00:00:52;;;;;;;23.70;10.98;;;;;9.30;101336.00;;;;5109291;28;20414;-76
2021/07/03 00:03:19;;;;;;;11.52;9.02;;;;;9.30;101351.00;;;;5109481;28;20059;-76
2021/07/03 00:05:45;;;;;;;17.52;8.27;;;;;9.40;101325.00;;;;5109423;28;20077;-76
2021/07/03 00:08:12;;;;;;;15.98;10.90;;;;;9.40;101345.00;;;;5109722;28;20027;-76
2021/07/03 00:10:39;;;;;;;13.35;8.73;;;;;9.40;101339.00;;;;5109797;28;20059;-76
2021/07/03 00:13:06;;;;;;;12.30;6.93;;;;;9.50;101334.00;;;;5109506;28;20505;-76
2021/07/03 00:15:33;;;;;;;21.75;13.88;;;;;9.50;101363.00;;;;5108659;28;20028;-76
2021/07/03 00:18:00;;;;;;;23.75;14.52;;;;;9.40;101334.00;;;;5109388;28;20030;-76
2021/07/03 00:20:27;;;;;;;21.90;13.35;;;;;9.40;101359.00;;;;5109130;28;20035;-76
2021/07/03 00:22:54;;;;;;;14.38;8.02;;;;;9.30;101346.00;;;;5109416;28;20032;-76
2021/07/03 00:25:22;;;;;;;15.05;7.80;;;;;9.20;101365.00;;;;5108782;28;20574;-76
2021/07/03 00:27:49;;;;;;;19.27;8.55;;;;;9.10;101357.00;;;;5108690;28;20080;-76
2021/07/03 00:30:16;;;;;;;20.40;11.07;;;;;9.10;101350.00;;;;5108787;28;20035;-76
2021/07/03 00:32:43;;;;;;;27.02;13.82;;;;;9.20;101385.00;;;;5109116;28;20506;-76
2021/07/03 00:35:10;;;;;;;26.17;12.45;;;;;9.00;101338.00;;;;5108814;28;20047;-76
2021/07/03 00:37:37;;;;;;;20.17;9.80;;;;;9.00;101372.00;;;;5090120;28;20059;-76
2021/07/03 00:40:05;;;;;;;18.27;10.05;;;;;9.00;101366.00;;;;5107844;28;20039;-76
2021/07/03 00:42:32;;;;;;;16.42;10.38;;;;;9.00;101377.00;;;;5107288;28;20524;-76
2021/07/03 00:44:58;;;;;;;16.33;10.48;;;;;8.90;101352.00;;;;5107970;28;20024;-77
2021/07/03 00:47:25;;;;;;;16.42;11.43;;;;;8.90;101377.00;;;;5107205;28;20035;-76
2021/07/03 00:49:51;;;;;;;15.77;11.35;;;;;8.80;101352.00;;;;5090170;28;20514;-76
2021/07/03 00:52:18;;;;;;;13.32;9.35;;;;;8.80;101352.00;;;;5107702;28;20032;-76
2021/07/03 00:54:46;;;;;;;19.70;10.70;;;;;8.80;101365.00;;;;5108326;28;20111;-76
2021/07/03 00:57:13;;;;;;;17.75;10.18;;;;;8.80;101375.00;;;;5107557;28;20096;-76
2021/07/03 00:59:43;;;;;;;20.10;10.75;;;;;8.70;101369.00;;;;5107836;28;20078;-76
2021/07/03 01:02:11;;;;;;;21.50;11.77;;;;;8.60;101357.00;;;;5107552;28;20031;-76
2021/07/03 01:04:39;;;;;;;20.25;11.20;;;;;8.60;101360.00;;;;5107402;28;20036;-76
2021/07/03 01:07:07;;;;;;;17.50;10.52;;;;;8.50;101381.00;;;;5108392;28;20032;-76
2021/07/03 01:09:35;;;;;;;18.60;9.25;;;;;8.50;101364.00;;;;5107847;28;20120;-76
2021/07/03 01:12:03;;;;;;;13.10;9.38;;;;;8.50;101374.00;;;;5106578;28;20418;-75
2021/07/03 01:14:31;;;;;;;22.67;11.18;;;;;8.50;101390.00;;;;5107938;28;20024;-76
2021/07/03 01:16:58;;;;;;;15.88;10.15;;;;;8.50;101397.00;;;;5107969;28;20504;-76
2021/07/03 01:19:25;;;;;;;16.92;10.60;;;;;8.50;101397.00;;;;5106778;28;20030;-76
2021/07/03 01:21:56;;;;;;;18.88;9.98;;;;;8.60;101375.00;;;;5108544;28;20024;-77
2021/07/03 01:24:24;;;;;;;21.00;9.35;;;;;8.60;101383.00;;;;5107966;28;20055;-76
2021/07/03 01:26:55;;;;;;;14.02;9.00;;;;;8.60;101406.00;;;;5107754;28;20024;-76
2021/07/03 01:29:24;;;;;;;14.02;8.00;;;;;8.60;101380.00;;;;5107664;28;20548;-76
2021/07/03 01:31:53;;;;;;;11.25;7.65;;;;;8.70;101371.00;;;;5107915;28;20031;-76
2021/07/03 01:34:22;;;;;;;16.20;8.13;;;;;8.70;101389.00;;;;5107258;28;20031;-75
2021/07/03 01:36:49;;;;;;;16.55;7.68;;;;;8.70;101411.00;;;;5107733;28;20055;-76
2021/07/03 01:39:16;;;;;;;15.20;8.63;;;;;8.70;101371.00;;;;5107834;28;20030;-77
2021/07/03 01:41:43;;;;;;;15.02;9.02;;;;;8.70;101398.00;;;;5107650;28;20467;-76
2021/07/03 01:44:13;;;;;;;17.13;8.95;;;;;8.80;101406.00;;;;5107736;28;20161;-76
2021/07/03 01:46:40;;;;;;;15.20;10.52;;;;;8.70;101371.00;;;;5107748;28;20031;-76
2021/07/03 01:49:09;;;;;;;24.25;13.48;;;;;8.60;101370.00;;;;5107289;28;20035;-76
2021/07/03 01:51:38;;;;;;;20.75;16.05;;;;;8.50;101355.00;;;;5107826;28;20023;-77
2021/07/03 01:54:05;;;;;;;17.63;10.88;;;;;8.50;101388.00;;;;5107318;28;20065;-76
2021/07/03 01:56:32;;;;;;;16.63;10.45;;;;;8.50;101380.00;;;;5107514;28;20039;-76
2021/07/03 01:58:58;;;;;;;19.17;13.90;;;;;8.40;101367.00;;;;5107579;28;20106;-77
2021/07/03 02:01:25;;;;;;;20.65;10.93;;;;;8.30;101375.00;;;;5107378;28;20063;-77
2021/07/03 02:03:52;;;;;;;13.43;9.70;;;;;8.40;101389.00;;;;5107158;28;20027;-77
2021/07/03 02:06:18;;;;;;;12.57;8.38;;;;;8.30;101389.00;;;;5107390;28;20150;-76
2021/07/03 02:08:45;;;;;;;20.13;9.32;;;;;8.30;101406.00;;;;5107888;28;20040;-76
2021/07/03 02:11:12;;;;;;;10.95;8.05;;;;;8.30;101402.00;;;;5107873;28;20019;-77
2021/07/03 02:13:38;;;;;;;13.60;8.55;;;;;8.40;101412.00;;;;5107631;28;20873;-77
2021/07/03 02:16:05;;;;;;;12.00;8.73;;;;;8.30;101419.00;;;;5107270;28;20028;-77
2021/07/03 02:18:32;;;;;;;13.15;8.70;;;;;8.30;101409.00;;;;5106711;28;20036;-77
2021/07/03 02:20:58;;;;;;;20.55;9.50;;;;;8.30;101419.00;;;;5088816;28;20027;-77
2021/07/03 02:23:25;;;;;;;13.13;9.57;;;;;8.20;101414.00;;;;5107205;28;20402;-76
2021/07/03 02:25:52;;;;;;;23.30;9.52;;;;;8.10;101396.00;;;;5107295;28;20062;-75
2021/07/03 02:28:18;;;;;;;18.88;11.15;;;;;8.10;101424.00;;;;5107000;28;20032;-76
2021/07/03 02:30:45;;;;;;;21.55;11.82;;;;;8.10;101405.00;;;;5107347;28;20449;-76
2021/07/03 02:33:12;;;;;;;18.92;11.80;;;;;8.10;101403.00;;;;5107374;28;20039;-76
2021/07/03 02:35:39;;;;;;;19.08;11.93;;;;;8.10;101417.00;;;;5107451;28;20466;-77
2021/07/03 02:38:06;;;;;;;27.05;16.55;;;;;8.20;101401.00;;;;5107216;28;20047;-76
2021/07/03 02:40:33;;;;;;;14.20;9.85;;;;;8.20;101415.00;;;;5106677;28;20034;-76
2021/07/03 02:43:00;;;;;;;15.63;9.63;;;;;8.20;101401.00;;;;5088309;28;20038;-76
2021/07/03 02:45:26;;;;;;;16.50;9.27;;;;;8.10;101404.00;;;;5106466;28;20103;-76
2021/07/03 02:47:53;;;;;;;18.13;10.68;;;;;8.00;101387.00;;;;5106971;28;20501;-76
2021/07/03 02:50:21;;;;;;;22.80;10.73;;;;;8.00;101408.00;;;;5108683;28;20174;-76
2021/07/03 02:52:47;;;;;;;14.15;10.57;;;;;7.90;101396.00;;;;5110974;28;20084;-76
2021/07/03 02:55:15;;;;;;;15.32;10.40;;;;;7.80;101413.00;;;;5110422;28;20057;-76
2021/07/03 02:57:41;;;;;;;14.90;10.15;;;;;7.70;101416.00;;;;5111571;28;20031;-76
2021/07/03 03:00:12;;;;;;;17.75;11.32;;;;;7.80;101395.00;;;;5110345;28;20075;-77
2021/07/03 03:02:38;;;;;;;17.90;12.40;;;;;7.80;101391.00;;;;5111144;28;20069;-78
2021/07/03 03:05:08;;;;;;;18.20;12.30;;;;;7.70;101396.00;;;;5110345;28;20392;-76
2021/07/03 03:07:38;;;;;;;17.25;9.88;;;;;7.70;101398.00;;;;5110791;28;20031;-76
2021/07/03 03:10:07;;;;;;;16.52;10.55;;;;;7.70;101424.00;;;;5110721;28;20134;-76
2021/07/03 03:12:34;;;;;;;15.25;10.13;;;;;7.70;101404.00;;;;5110868;28;20036;-76
2021/07/03 03:15:01;;;;;;;12.85;9.48;;;;;7.70;101436.00;;;;5111139;28;20032;-77
2021/07/03 03:17:28;;;;;;;22.80;11.93;;;;;7.70;101404.00;;;;5110283;28;20032;-77
2021/07/03 03:19:54;;;;;;;17.88;12.73;;;;;7.80;101410.00;;;;5110322;28;20061;-77
2021/07/03 03:22:21;;;;;;;16.08;10.52;;;;;7.80;101416.00;;;;5110436;28;20471;-76
2021/07/03 03:24:48;;;;;;;18.92;9.40;;;;;7.80;101399.00;;;;5110035;28;20040;-76
2021/07/03 03:27:14;;;;;;;13.35;8.75;;;;;7.70;101394.00;;;;5110055;28;20439;-76
2021/07/03 03:29:41;;;;;;;13.65;8.85;;;;;7.70;101442.00;;;;5109986;28;20114;-76
2021/07/03 03:32:08;;;;;;;11.07;8.77;;;;;7.60;101415.00;;;;5110321;28;20023;-77
2021/07/03 03:34:34;;;;;;;14.65;8.60;;;;;7.70;101423.00;;;;5110261;28;20035;-77
2021/07/03 03:37:01;;;;;;;17.83;9.32;;;;;7.70;101412.00;;;;5110148;28;20118;-77
2021/07/03 03:39:28;;;;;;;15.73;9.07;;;;;7.70;101448.00;;;;5110239;28;20497;-77
2021/07/03 03:41:55;;;;;;;15.52;8.80;;;;;7.60;101425.00;;;;5110055;28;20144;-77
2021/07/03 03:44:21;;;;;;;13.63;8.98;;;;;7.70;101426.00;;;;5110260;28;20115;-77
2021/07/03 03:46:57;;;;;;;18.17;10.10;;;;;7.60;101435.00;;;;5110770;28;20032;-77
2021/07/03 03:49:23;;;;;;;13.35;9.27;;;;;7.60;101416.00;;;;5110169;28;20023;-77
2021/07/03 03:51:50;;;;;;;19.45;11.40;;;;;7.60;101432.00;;;;5110022;28;20059;-77
2021/07/03 03:54:18;;;;;;;13.57;9.45;;;;;7.50;101392.00;;;;5109906;28;20402;-77
2021/07/03 03:56:44;;;;;;;18.42;10.55;;;;;7.40;101388.00;;;;5109771;28;20527;-77
2021/07/03 03:59:11;;;;;;;23.85;16.30;;;;;7.40;101421.00;;;;5109873;28;20511;-77
2021/07/03 04:01:38;;;;;;;17.88;12.05;;;;;7.40;101401.00;;;;5108364;28;20046;-77
2021/07/03 04:04:05;;;;;;;20.25;11.63;;;;;7.40;101427.00;;;;5109764;28;20024;-77
2021/07/03 04:06:32;;;;;;;17.85;10.82;;;;;7.30;101400.00;;;;5109650;28;20020;-77
2021/07/03 04:08:59;;;;;;;18.42;10.15;;;;;7.30;101410.00;;;;5108940;28;20063;-77
2021/07/03 04:11:25;;;;;;;23.83;11.50;;;;;7.20;101418.00;;;;5110310;28;20111;-76
2021/07/03 04:13:52;;;;;;;17.83;11.57;;;;;7.20;101431.00;;;;5109042;28;20725;-76
2021/07/03 04:16:19;;;;;;;15.65;10.13;;;;;7.20;101425.00;;;;5091724;28;20088;-77
2021/07/03 04:18:45;;;;;;;21.33;13.18;;;;;7.20;101429.00;;;;5109606;28;20043;-76
2021/07/03 04:21:12;;;;;;;23.90;12.93;;;;;7.10;101410.00;;;;5109427;28;20111;-76
2021/07/03 04:23:38;;;;;;;26.30;12.05;;;;;7.10;101403.00;;;;5109422;28;20032;-76
2021/07/03 04:26:05;;;;;;;17.50;9.85;;;;;7.10;101414.00;;;;5109033;28;20111;-76
2021/07/03 04:28:32;;;;;;;19.77;9.60;;;;;7.10;101385.00;;;;5109144;28;20028;-76
2021/07/03 04:30:58;;;;;;;15.00;9.40;;;;;7.10;101404.00;;;;5109218;28;20504;-77
2021/07/03 04:33:25;;;;;;;18.25;9.02;;;;;7.10;101413.00;;;;5108915;28;20035;-76
2021/07/03 04:35:51;;;;;;;11.90;8.50;;;;;7.20;101408.00;;;;5109132;28;20029;-76
2021/07/03 04:38:19;;;;;;;12.65;9.00;;;;;7.30;101389.00;;;;5109017;28;20398;-76
2021/07/03 04:40:46;;;;;;;13.75;9.10;;;;;7.30;101404.00;;;;5109085;28;20031;-76
2021/07/03 04:43:12;;;;;;;18.95;9.50;;;;;7.20;101406.00;;;;5108925;28;20114;-76
2021/07/03 04:45:39;;;;;;;12.30;9.40;;;;;7.30;101394.00;;;;5108562;28;20070;-76
2021/07/03 04:48:06;;;;;;;15.02;10.05;;;;;7.30;101437.00;;;;5108868;28;21085;-76
2021/07/03 04:50:32;;;;;;;21.67;13.18;;;;;7.40;101408.00;;;;5108449;28;20027;-76
2021/07/03 04:52:59;;;;;;;28.95;15.60;;;;;7.30;101412.00;;;;5109092;28;20072;-76
2021/07/03 04:55:25;;;;;;;17.17;13.23;;;;;7.30;101428.00;;;;5108907;28;20384;-77
2021/07/03 04:57:52;;;;;;;23.95;14.20;;;;;7.30;101412.00;;;;5109066;28;20539;-76
2021/07/03 05:00:19;;;;;;;20.00;15.00;;;;;7.40;101416.00;;;;5109206;28;20589;-77
2021/07/03 05:02:46;;;;;;;24.05;14.23;;;;;7.40;101396.00;;;;5108648;28;20027;-76
2021/07/03 05:05:12;;;;;;;23.67;13.30;;;;;7.40;101421.00;;;;5108466;28;20020;-77
2021/07/03 05:07:42;;;;;;;19.17;13.55;;;;;7.30;101398.00;;;;5108681;28;20144;-77
2021/07/03 05:10:10;;;;;;;20.25;16.20;;;;;7.20;101398.00;;;;5108081;28;20031;-76
2021/07/03 05:12:37;;;;;;;24.45;16.25;;;;;7.20;101392.00;;;;5107874;28;20024;-76
2021/07/03 05:15:04;;;;;;;28.33;16.27;;;;;7.20;101379.00;;;;5108206;28;20085;-75
2021/07/03 05:17:31;;;;;;;26.17;16.17;;;;;7.10;101426.00;;;;5108100;28;20027;-76
2021/07/03 05:19:57;;;;;;;20.08;14.77;;;;;7.10;101396.00;;;;5089714;28;20027;-76
2021/07/03 05:22:24;;;;;;;24.77;15.88;;;;;7.10;101391.00;;;;5108244;28;20089;-75
2021/07/03 05:24:51;;;;;;;22.13;15.30;;;;;7.00;101404.00;;;;5108597;28;20035;-76
2021/07/03 05:27:17;;;;;;;21.15;15.10;;;;;7.00;101413.00;;;;5107990;28;20028;-76
2021/07/03 05:29:44;;;;;;;22.40;14.20;;;;;7.00;101422.00;;;;5089339;28;20028;-76
2021/07/03 05:32:10;;;;;;;19.05;14.80;;;;;6.90;101400.00;;;;5107463;28;20036;-76
2021/07/03 05:34:37;;;;;;;18.80;13.88;;;;;6.80;101405.00;;;;5107956;28;20024;-76
2021/07/03 05:37:04;;;;;;;23.23;14.23;;;;;6.80;101406.00;;;;5108550;28;20058;-76
2021/07/03 05:39:31;;;;;;;25.55;14.23;;;;;6.80;101385.00;;;;5107869;28;20049;-76
2021/07/03 05:41:58;;;;;;;22.75;13.82;;;;;6.70;101430.00;;;;5108033;28;20028;-76
2021/07/03 05:44:25;;;;;;;19.15;12.07;;;;;6.80;101429.00;;;;5107523;28;20038;-76
2021/07/03 05:46:52;;;;;;;20.77;13.30;;;;;6.80;101421.00;;;;5107604;28;20020;-76
2021/07/03 05:49:19;;;;;;;24.20;12.38;;;;;6.70;101392.00;;;;5107880;28;20077;-76
2021/07/03 05:51:46;;;;;;;22.35;12.90;;;;;6.80;101397.00;;;;5107485;28;20031;-77
2021/07/03 05:54:13;;;;;;;18.77;12.15;;;;;6.90;101429.00;;;;5108050;28;20032;-76
2021/07/03 05:56:40;;;;;;;22.10;11.95;;;;;6.80;101397.00;;;;5107695;28;20023;-76
2021/07/03 05:59:07;;;;;;;20.30;11.00;;;;;6.70;101414.00;;;;5107628;28;20046;-77
2021/07/03 06:01:34;;;;;;;15.48;10.55;;;;;6.70;101418.00;;;;5106856;28;20601;-76
2021/07/03 06:04:01;;;;;;;17.83;9.68;;;;;6.50;101423.00;;;;5107523;28;20031;-76
2021/07/03 06:06:27;;;;;;;18.67;10.35;;;;;6.40;101415.00;;;;5107546;28;21023;-77
2021/07/03 06:08:54;;;;;;;16.23;10.48;;;;;6.50;101440.00;;;;5107520;28;20053;-76
2021/07/03 06:11:20;;;;;;;22.15;10.68;;;;;6.50;101424.00;;;;5107585;28;20485;-76
2021/07/03 06:13:47;;;;;;;19.75;10.48;;;;;6.60;101392.00;;;;5107258;28;20489;-77
2021/07/03 06:16:13;;;;;;;13.02;9.95;;;;;6.50;101422.00;;;;5107825;28;20382;-77
2021/07/03 06:18:40;;;;;;;25.35;9.85;;;;;6.60;101414.00;;;;5107190;28;20960;-76
2021/07/03 06:21:07;;;;;;;14.60;10.60;;;;;6.60;101426.00;;;;5107384;28;20030;-76
2021/07/03 06:23:33;;;;;;;17.98;8.90;;;;;6.60;101423.00;;;;5107509;28;20081;-76
2021/07/03 06:26:00;;;;;;;15.93;9.02;;;;;6.60;101405.00;;;;5106390;28;20031;-76
2021/07/03 06:28:28;;;;;;;13.23;8.55;;;;;6.60;101400.00;;;;5106544;28;20539;-76
2021/07/03 06:30:55;;;;;;;11.75;8.50;;;;;6.60;101437.00;;;;5107028;28;20051;-76
2021/07/03 06:33:22;;;;;;;16.27;9.32;;;;;6.60;101429.00;;;;5107445;28;20058;-76
2021/07/03 06:35:48;;;;;;;13.75;8.55;;;;;6.60;101422.00;;;;5107377;28;20034;-76
2021/07/03 06:38:15;;;;;;;10.00;8.00;;;;;6.50;101408.00;;;;5108003;28;20030;-76
2021/07/03 06:40:41;;;;;;;13.13;8.68;;;;;6.50;101405.00;;;;5107130;28;20062;-76
2021/07/03 06:43:08;;;;;;;14.23;8.98;;;;;6.40;101396.00;;;;5106888;28;20035;-76
2021/07/03 06:45:35;;;;;;;16.50;9.07;;;;;6.40;101439.00;;;;5107041;28;20036;-76
2021/07/03 06:48:01;;;;;;;15.80;9.98;;;;;6.50;101421.00;;;;5107443;28;20192;-76
2021/07/03 06:50:28;;;;;;;17.73;9.40;;;;;6.40;101430.00;;;;5106716;28;20019;-76
2021/07/03 06:52:54;;;;;;;20.77;9.38;;;;;6.30;101404.00;;;;5107151;28;20028;-76
2021/07/03 06:55:21;;;;;;;16.60;10.23;;;;;6.30;101410.00;;;;5106935;28;20027;-77
2021/07/03 06:57:48;;;;;;;16.08;8.93;;;;;6.30;101413.00;;;;5107345;28;20111;-76
2021/07/03 07:00:15;;;;;;;16.08;8.90;;;;;6.30;101402.00;;;;5107066;28;20047;-76
2021/07/03 07:02:41;;;;;;;15.52;8.93;;;;;6.40;101404.00;;;;5107546;28;20471;-76
2021/07/03 07:05:08;;;;;;;16.05;10.38;;;;;6.40;101436.00;;;;5107337;28;20035;-76
2021/07/03 07:07:35;;;;;;;14.63;9.32;;;;;6.30;101429.00;;;;5106314;28;20043;-76
2021/07/03 07:10:04;;;;;;;14.73;8.98;;;;;6.30;101444.00;;;;5106755;28;20038;-77
2021/07/03 07:12:31;;;;;;;16.50;9.70;;;;;6.30;101447.00;;;;5106909;28;20497;-76
2021/07/03 07:14:58;;;;;;;11.75;8.07;;;;;6.30;101417.00;;;;5106901;28;20023;-77
2021/07/03 07:17:24;;;;;;;18.27;7.90;;;;;6.20;101435.00;;;;5106565;28;20024;-76
2021/07/03 07:19:51;;;;;;;13.55;9.10;;;;;6.20;101443.00;;;;5106675;28;20035;-76
2021/07/03 07:22:17;;;;;;;13.95;8.43;;;;;6.20;101426.00;;;;5106681;28;20160;-76
2021/07/03 07:24:44;;;;;;;12.77;8.98;;;;;6.20;101440.00;;;;5106462;28;20019;-77
2021/07/03 07:27:11;;;;;;;13.00;9.13;;;;;6.20;101441.00;;;;5107360;28;20491;-77
2021/07/03 07:29:37;;;;;;;17.45;9.00;;;;;6.20;101456.00;;;;5106633;28;20608;-77
2021/07/03 07:32:04;;;;;;;15.15;8.70;;;;;6.20;101454.00;;;;5106404;28;20402;-76
2021/07/03 07:34:31;;;;;;;15.77;6.78;;;;;6.10;101441.00;;;;5107046;28;20039;-77
2021/07/03 07:36:58;;;;;;;8.77;7.47;;;;;6.20;101414.00;;;;5108676;28;20028;-77
2021/07/03 07:39:24;;;;;;;13.35;8.43;;;;;6.20;101401.00;;;;5110207;28;20032;-77
2021/07/03 07:41:51;;;;;;;12.95;8.80;;;;;6.20;101435.00;;;;5109861;28;20072;-77
2021/07/03 07:44:17;;;;;;;15.25;8.80;;;;;6.10;101435.00;;;;5110095;28;20068;-77
2021/07/03 07:46:44;;;;;;;11.82;6.78;;;;;6.10;101440.00;;;;5110276;28;20057;-77
2021/07/03 07:49:11;;;;;;;13.98;8.27;;;;;6.10;101436.00;;;;5109807;28;20035;-76
2021/07/03 07:51:37;;;;;;;10.38;7.60;;;;;6.00;101455.00;;;;5091969;28;20034;-77
2021/07/03 07:54:04;;;;;;;15.80;8.32;;;;;6.00;101410.00;;;;5109612;28;20072;-76
2021/07/03 07:56:31;;;;;;;14.57;9.43;;;;;5.90;101436.00;;;;5110063;28;20075;-76
2021/07/03 07:58:57;;;;;;;11.13;8.38;;;;;5.80;101425.00;;;;5110035;28;20027;-76
2021/07/03 08:01:24;;;;;;;15.95;7.40;;;;;5.80;101426.00;;;;5109998;28;20529;-77
2021/07/03 08:03:51;;;;;;;13.32;8.30;;;;;5.80;101445.00;;;;5109996;28;20034;-76
2021/07/03 08:06:18;;;;;;;12.13;7.80;;;;;5.70;101415.00;;;;5109365;28;20019;-77
2021/07/03 08:08:44;;;;;;;13.90;7.80;;;;;5.80;101413.00;;;;5109342;28;20100;-77
2021/07/03 08:11:11;;;;;;;13.07;9.23;;;;;6.00;101401.00;;;;5091216;28;20023;-77
2021/07/03 08:13:39;;;;;;;16.85;10.50;;;;;6.00;101404.00;;;;5109768;28;20486;-76
2021/07/03 08:16:05;;;;;;;17.17;11.20;;;;;6.00;101415.00;;;;5109824;28;20097;-76
2021/07/03 08:18:32;;;;;;;15.45;10.23;;;;;6.00;101395.00;;;;5109163;28;20027;-77
2021/07/03 08:20:59;;;;;;;16.10;10.02;;;;;6.00;101421.00;;;;5108972;28;20104;-76
2021/07/03 08:23:25;;;;;;;17.80;10.07;;;;;6.00;101446.00;;;;5109278;28;20574;-76
2021/07/03 08:25:52;;;;;;;13.60;9.35;;;;;6.00;101432.00;;;;5109177;28;20051;-77
2021/07/03 08:28:18;;;;;;;19.73;11.32;;;;;6.00;101430.00;;;;5109290;28;20165;-76
2021/07/03 08:30:45;;;;;;;21.80;11.05;;;;;5.90;101423.00;;;;5109211;28;20503;-77
2021/07/03 08:33:11;;;;;;;17.20;10.40;;;;;6.00;101413.00;;;;5109161;28;20111;-77
2021/07/03 08:35:38;;;;;;;19.38;10.55;;;;;6.00;101456.00;;;;5108958;28;20500;-77
2021/07/03 08:38:05;;;;;;;20.38;10.20;;;;;6.00;101411.00;;;;5109025;28;20023;-77
2021/07/03 08:40:31;;;;;;;16.17;10.15;;;;;6.00;101444.00;;;;5091151;28;20160;-77
2021/07/03 08:42:58;;;;;;;17.20;10.45;;;;;6.00;101429.00;;;;5108785;28;20608;-77
2021/07/03 08:45:25;;;;;;;16.50;10.15;;;;;6.00;101408.00;;;;5108411;28;20028;-76
2021/07/03 08:47:51;;;;;;;14.88;9.93;;;;;6.00;101415.00;;;;5108144;28;20426;-77
2021/07/03 08:50:19;;;;;;;20.17;10.25;;;;;6.00;101450.00;;;;5108789;28;20164;-79
2021/07/03 08:52:46;;;;;;;13.40;7.63;;;;;6.00;101452.00;;;;5108560;28;20043;-77
2021/07/03 08:55:22;;;;;;;17.17;9.02;;;;;6.00;101438.00;;;;5108028;28;20024;-76
2021/07/03 08:57:52;;;;;;;19.52;9.10;;;;;5.90;101453.00;;;;5108630;28;20023;-77
2021/07/03 09:00:40;;;;;;;12.85;7.90;;;;;5.80;101437.00;;;;5108855;28;20046;-77
2021/07/03 09:03:17;;;;;;;25.23;15.18;;;;;5.80;101411.00;;;;5108587;28;20020;-77
2021/07/03 09:05:54;;;;;;;30.55;18.48;;;;;5.60;101434.00;;;;5109086;28;20031;-77
2021/07/03 09:08:23;;;;;;;27.77;17.00;;;;;5.50;101432.00;;;;5108555;28;20072;-76
2021/07/03 09:11:02;;;;;;;25.35;15.85;;;;;5.60;101442.00;;;;5108491;28;20032;-76
2021/07/03 09:13:30;;;;;;;27.58;17.42;;;;;5.60;101449.00;;;;5108701;28;20084;-77
2021/07/03 09:15:57;;;;;;;40.75;23.65;;;;;5.50;101465.00;;;;5108487;28;20055;-79
2021/07/03 09:18:27;;;;;;;28.25;18.48;;;;;5.50;101453.00;;;;5108464;28;20031;-78
2021/07/03 09:20:56;;;;;;;47.67;27.75;;;;;5.50;101443.00;;;;5107844;28;20039;-78
2021/07/03 09:23:31;;;;;;;49.22;30.42;;;;;5.60;101472.00;;;;5089455;28;20750;-79
2021/07/03 09:26:00;;;;;;;39.70;26.05;;;;;5.70;101474.00;;;;5108273;28;20073;-78
2021/07/03 09:28:29;;;;;;;43.38;23.35;;;;;5.70;101460.00;;;;5108821;28;20059;-78
2021/07/03 09:31:00;;;;;;;29.23;14.02;;;;;5.60;101483.00;;;;5110130;28;20031;-78
2021/07/03 09:33:32;;;;;;;21.67;13.02;;;;;5.60;101483.00;;;;5130877;28;20032;-78
2021/07/03 09:36:01;;;;;;;39.00;20.23;;;;;5.50;101495.00;;;;5131229;28;20039;-77
2021/07/03 09:38:33;;;;;;;27.67;15.18;;;;;5.40;101399.00;;;;5111518;28;20111;-79
2021/07/03 09:41:29;;;;;;;44.42;22.75;;;;;5.50;101494.00;;;;5108504;28;20027;-78
2021/07/03 09:43:56;;;;;;;30.00;15.15;;;;;5.50;101497.00;;;;5088273;28;20073;-78
2021/07/03 09:46:29;;;;;;;29.75;15.05;;;;;5.50;101517.00;;;;5108444;28;20502;-78
2021/07/03 09:49:10;;;;;;;23.05;15.35;;;;;5.60;101503.00;;;;5108178;28;20039;-78
2021/07/03 09:54:59;;;;;;;24.23;16.00;;;;;5.50;101516.00;;;;5106846;28;20512;-78
2021/07/03 09:57:26;;;;;;;46.28;23.17;;;;;5.60;101481.00;;;;5108235;28;20815;-78
2021/07/03 09:59:53;;;;;;;43.47;23.92;;;;;5.50;101482.00;;;;5085644;28;20044;-78
2021/07/03 10:02:19;;;;;;;30.00;17.90;;;;;5.50;101514.00;;;;5087037;28;20422;-79
2021/07/03 10:04:46;;;;;;;35.47;21.23;;;;;5.50;101490.00;;;;5086932;28;20038;-78
2021/07/03 10:07:34;;;;;;;36.47;23.92;;;;;5.40;101513.00;;;;5086655;28;20102;-79
2021/07/03 10:10:06;;;;;;;30.90;19.17;;;;;5.50;101522.00;;;;5086813;28;20769;-78
2021/07/03 10:12:36;;;;;;;31.42;19.73;;;;;5.50;101484.00;;;;5087809;28;20492;-77
2021/07/03 10:15:04;;;;;;;31.85;19.15;;;;;5.50;101529.00;;;;5085477;28;20024;-78
2021/07/03 10:17:32;;;;;;;30.02;16.00;;;;;5.50;101500.00;;;;5087100;28;20119;-78
2021/07/03 10:19:59;;;;;;;24.45;17.30;;;;;5.60;101521.00;;;;5087439;28;20051;-78
2021/07/03 10:22:32;;;;;;;25.58;13.45;;;;;5.60;101545.00;;;;5087346;28;20028;-78
2021/07/03 10:25:11;;;;;;;20.77;13.30;;;;;5.60;101535.00;;;;5087434;28;20064;-78
2021/07/03 10:27:53;;;;;;;17.08;11.93;;;;;5.50;101543.00;;;;5086593;28;20077;-77
2021/07/03 10:30:27;;;;;;;22.05;12.45;;;;;5.60;101524.00;;;;5086325;28;20376;-78
2021/07/03 10:32:59;;;;;;;19.40;12.95;;;;;5.50;101527.00;;;;5086646;28;20455;-78
2021/07/03 10:35:27;;;;;;;14.07;11.27;;;;;5.60;101526.00;;;;5085439;28;20033;-78
2021/07/03 10:37:55;;;;;;;23.70;12.00;;;;;5.70;101542.00;;;;5086528;28;20038;-77
2021/07/03 10:40:29;;;;;;;14.52;10.52;;;;;5.60;101522.00;;;;5086488;28;20047;-78
2021/07/03 10:43:08;;;;;;;18.25;11.00;;;;;5.80;101530.00;;;;5086995;28;20034;-78
2021/07/03 10:45:54;;;;;;;16.95;11.35;;;;;5.80;101536.00;;;;5087213;28;20107;-77
2021/07/03 10:48:23;;;;;;;26.00;11.80;;;;;5.90;101538.00;;;;5086682;28;20051;-77
2021/07/03 10:50:52;;;;;;;26.88;12.35;;;;;6.10;101555.00;;;;5085896;28;20032;-78
2021/07/03 10:53:30;;;;;;;39.95;21.27;;;;;6.20;101537.00;;;;5086327;28;20062;-77
2021/07/03 10:56:10;;;;;;;30.35;13.25;;;;;6.60;101546.00;;;;5086894;28;20035;-78
2021/07/03 10:58:38;;;;;;;26.35;11.60;;;;;7.00;101521.00;;;;5087115;28;20039;-78
2021/07/03 11:01:13;;;;;;;25.45;14.85;;;;;8.00;101514.00;;;;5102000;28;20154;-77
2021/07/03 11:03:49;;;;;;;21.08;10.48;;;;;7.70;101529.00;;;;5106995;28;20035;-78
2021/07/03 11:06:18;;;;;;;16.25;9.88;;;;;7.60;101535.00;;;;5106917;28;20837;-78
2021/07/03 11:08:44;;;;;;;15.40;9.20;;;;;8.00;101533.00;;;;5107374;28;20027;-78
2021/07/03 11:11:13;;;;;;;14.45;8.60;;;;;8.20;101524.00;;;;5108887;28;20031;-78
2021/07/03 11:13:41;;;;;;;12.93;8.70;;;;;9.00;101486.00;;;;5110632;28;20439;-78
2021/07/03 11:16:14;;;;;;;29.52;11.02;;;;;10.30;101475.00;;;;5110217;28;20501;-79
2021/07/03 11:18:47;;;;;;;15.45;7.75;;;;;9.80;101526.00;;;;5110807;28;20047;-77
2021/07/03 11:21:15;;;;;;;18.83;9.55;;;;;9.70;101517.00;;;;5111072;28;20552;-77
2021/07/03 11:23:42;;;;;;;15.68;7.20;;;;;10.20;101489.00;;;;5110603;28;20605;-77
2021/07/03 11:26:13;;;;;;;17.13;9.57;;;;;11.10;101480.00;;;;5110224;28;20019;-78
2021/07/03 11:28:40;;;;;;;15.38;7.95;;;;;11.60;101477.00;;;;5110092;28;20028;-78
2021/07/03 11:31:07;;;;;;;18.23;6.60;;;;;11.80;101513.00;;;;5091800;28;20441;-80
2021/07/03 11:33:36;;;;;;;11.07;6.35;;;;;12.50;101480.00;;;;5110810;28;20059;-78
2021/07/03 11:36:04;;;;;;;11.55;7.43;;;;;13.90;101424.00;;;;5110361;28;20024;-78
2021/07/03 11:38:32;;;;;;;16.50;6.75;;;;;14.50;101432.00;;;;5110217;28;20426;-77
2021/07/03 11:41:01;;;;;;;12.60;6.53;;;;;14.80;101417.00;;;;5109311;28;20473;-78
2021/07/03 11:43:31;;;;;;;13.85;7.90;;;;;15.00;101402.00;;;;5109757;28;20391;-76
2021/07/03 11:45:58;;;;;;;21.60;7.72;;;;;15.50;101387.00;;;;5109750;28;20529;-77
2021/07/03 11:48:27;;;;;;;9.30;6.65;;;;;15.60;101408.00;;;;5109639;28;20059;-77
2021/07/03 11:50:56;;;;;;;7.68;6.28;;;;;16.00;101449.00;;;;5109716;28;20046;-76
2021/07/03 11:53:28;;;;;;;21.73;7.47;;;;;16.00;101429.00;;;;5109665;28;20039;-75
2021/07/03 11:55:57;;;;;;;7.25;6.50;;;;;16.20;101400.00;;;;5110014;28;20027;-76
2021/07/03 11:58:31;;;;;;;15.63;7.07;;;;;16.80;101421.00;;;;5110647;28;20076;-75
2021/07/03 12:01:00;;;;;;;14.80;6.97;;;;;17.00;101453.00;;;;5109680;28;20429;-77
2021/07/03 12:03:32;;;;;;;9.48;6.68;;;;;17.40;101449.00;;;;5109966;28;20020;-76
2021/07/03 12:06:00;;;;;;;11.60;7.03;;;;;17.50;101500.00;;;;5109184;28;20027;-75
2021/07/03 12:08:38;;;;;;;13.13;5.95;;;;;17.40;101498.00;;;;5109449;28;20545;-75
2021/07/03 12:11:08;;;;;;;16.75;6.63;;;;;18.00;101506.00;;;;5109461;28;20035;-76